ADDS TAF Board INFO
 
 

IDs: Format: Expanded Condensed

KSAN - San Diego Intl Arpt, CA, US

Issued at 0305 UTC 25 Jul 2014
Time0251Z25/04Z25/05Z25/06Z25/07Z25/08Z25/09Z25/10Z25/11Z25/12Z25/13Z25/14Z25/15Z25/16Z
TypeOBSPRVLPRVLPRVLPRVLPRVLPRVLPRVLPRVLPRVLPRVLPRVLPRVLPRVL
Vis10>6>6>6>6>6>6>6>6>6>6>6>6>6
Cig------------1010101010101010
CoverSCTSCTSCTSCTSCTSCTBKNBKNBKNBKNBKNBKNBKNBKN
FltCat--VFRVFRVFRVFRVFRMVFRMVFRMVFRMVFRMVFRMVFRMVFRMVFR
Wx----------------------------
WDir300VRBVRBVRBVRBVRBVRBVRBVRBVRBVRBVRBVRBVRB
WSpd34444444444444
WGst----------------------------
R09/27
XWnd1VRBVRBVRBVRBVRBVRBVRBVRBVRBVRBVRBVRBVRB
HWnd-3VRBVRBVRBVRBVRBVRBVRBVRBVRBVRBVRBVRBVRB
Raw TAF
KSAN 250305Z 2503/2606 VRB04KT P6SM SCT250
  FM250900 VRB04KT P6SM BKN010
  FM251900 23008KT P6SM SCT200
  FM260100 VRB06KT P6SM SCT200
  FM260500 VRB05KT P6SM BKN009


Raw METAR
KSAN 250251Z 30003KT 10SM FEW010 SCT220 23/19 A2980 RMK AO2 SLP091 T02330189 53009 $

TAF Board Legend

Hazard Green Yellow Red Magenta
Visibility (sm) >5 >2.99 >0.99 <=0.99
Ceiling (100 ft) >30 >9.99 >4.99 <=4.99
Wind Speed (kt) <10 <20 <30 >=30
Wind Gust (kt) <10 <20 <30 >=30
Weather No Wx Reported Light precipitation Moderate precipitation Heavy precipitation
Flight Category VFR MVFR IFR LIFR

Page loaded:  03:38 UTC  |   08:38 PM Pacific  |   09:38 PM Mountain  |   10:38 PM Central  |   11:38 PM Eastern

 

ADVISORIES

FORECASTS

FORECASTS

OBSERVATIONS

USER TOOLS

ABOUT US